createdAt,value
2022-11-08T00:00:14.341Z,6.80
2022-11-08T00:02:41.349Z,6.70
2022-11-08T00:05:27.109Z,6.60
2022-11-08T00:10:58.687Z,6.40
2022-11-08T00:13:44.239Z,6.50
2022-11-08T00:16:11.147Z,6.50
2022-11-08T00:18:38.019Z,6.50
2022-11-08T00:21:04.924Z,6.50
2022-11-08T00:23:31.845Z,6.40
2022-11-08T00:25:58.732Z,6.50
2022-11-08T00:28:25.655Z,6.40
2022-11-08T00:30:52.586Z,6.40
2022-11-08T00:33:19.500Z,6.30
2022-11-08T00:35:46.375Z,6.50
2022-11-08T00:38:13.712Z,6.60
2022-11-08T00:40:40.639Z,6.50
2022-11-08T00:43:07.616Z,6.50
2022-11-08T00:45:34.559Z,6.60
2022-11-08T00:48:01.480Z,6.60
2022-11-08T00:50:28.354Z,6.60
2022-11-08T00:52:55.265Z,6.70
2022-11-08T00:55:22.207Z,6.70
2022-11-08T00:58:04.163Z,6.60
2022-11-08T01:00:31.105Z,6.60
2022-11-08T01:03:16.548Z,6.50
2022-11-08T01:05:43.467Z,6.40
2022-11-08T01:08:11.517Z,6.30
2022-11-08T01:10:42.877Z,6.20
2022-11-08T01:13:11.676Z,6.20
2022-11-08T01:15:42.176Z,6.30
2022-11-08T01:18:11.292Z,6.10
2022-11-08T01:20:42.978Z,6.10
2022-11-08T01:23:11.395Z,6.00
2022-11-08T01:25:40.952Z,6.10
2022-11-08T01:28:09.292Z,6.10
2022-11-08T01:30:38.120Z,6.00
2022-11-08T01:33:06.286Z,6.00
2022-11-08T01:35:35.392Z,6.00
2022-11-08T01:38:03.448Z,5.90
2022-11-08T01:40:31.729Z,5.90
2022-11-08T01:42:58.856Z,5.90
2022-11-08T01:46:17.903Z,5.90
2022-11-08T01:49:07.997Z,5.80
2022-11-08T01:51:50.685Z,5.70
2022-11-08T01:54:37.166Z,5.80
2022-11-08T01:57:09.459Z,5.60
2022-11-08T01:59:40.729Z,5.50
2022-11-08T02:02:10.061Z,5.50
2022-11-08T02:04:40.316Z,5.50
2022-11-08T02:07:09.685Z,5.50
2022-11-08T02:09:39.034Z,5.50
2022-11-08T02:12:07.980Z,5.50
2022-11-08T02:14:37.043Z,5.50
2022-11-08T02:17:05.698Z,5.40
2022-11-08T02:19:44.712Z,5.40
2022-11-08T02:22:43.787Z,5.40
2022-11-08T02:25:11.020Z,5.40
2022-11-08T02:27:37.961Z,5.40
2022-11-08T02:30:05.702Z,5.50
2022-11-08T02:32:40.554Z,5.40
2022-11-08T02:35:15.391Z,5.40
2022-11-08T02:37:42.993Z,5.30
2022-11-08T02:40:10.580Z,5.30
2022-11-08T02:42:40.606Z,5.30
2022-11-08T02:45:08.766Z,5.30
2022-11-08T02:47:35.757Z,5.40
2022-11-08T02:50:03.399Z,5.30
2022-11-08T02:52:30.355Z,5.30
2022-11-08T02:54:57.256Z,5.30
2022-11-08T02:57:24.240Z,5.20
2022-11-08T02:59:52.061Z,5.10
2022-11-08T03:02:19.143Z,5.10
2022-11-08T03:04:46.209Z,5.10
2022-11-08T03:07:13.129Z,5.10
2022-11-08T03:09:40.103Z,5.10
2022-11-08T03:12:07.315Z,5.10
2022-11-08T03:14:34.257Z,5.20
2022-11-08T03:17:01.198Z,5.20
2022-11-08T03:19:28.098Z,5.20
2022-11-08T03:21:55.027Z,5.00
2022-11-08T03:24:21.976Z,5.00
2022-11-08T03:26:48.900Z,5.00
2022-11-08T03:29:15.815Z,5.00
2022-11-08T03:31:42.755Z,5.10
2022-11-08T03:34:10.874Z,5.00
2022-11-08T03:36:37.863Z,5.00
2022-11-08T03:39:04.893Z,5.00
2022-11-08T03:41:31.764Z,5.00
2022-11-08T03:43:58.685Z,4.90
2022-11-08T03:46:25.627Z,4.90
2022-11-08T03:48:52.582Z,4.90
2022-11-08T03:51:19.539Z,4.90
2022-11-08T03:53:46.461Z,4.80
2022-11-08T03:56:13.355Z,4.80
2022-11-08T03:58:40.264Z,4.80
2022-11-08T04:01:08.282Z,4.70
2022-11-08T04:03:35.307Z,4.70
2022-11-08T04:06:03.612Z,4.60
2022-11-08T04:08:30.938Z,4.60
2022-11-08T04:11:18.814Z,4.60
2022-11-08T04:14:04.758Z,4.60
2022-11-08T04:16:32.884Z,4.50
2022-11-08T04:19:19.336Z,4.50
2022-11-08T04:21:48.986Z,4.50
2022-11-08T04:24:16.930Z,4.50
2022-11-08T04:26:44.140Z,4.30
2022-11-08T04:29:11.142Z,4.30
2022-11-08T04:31:38.061Z,4.30
2022-11-08T04:34:05.836Z,4.20
2022-11-08T04:36:36.233Z,4.40
2022-11-08T04:39:04.017Z,4.50
2022-11-08T04:41:31.001Z,4.60
2022-11-08T04:43:58.125Z,4.60
2022-11-08T04:46:27.891Z,4.50
2022-11-08T04:48:57.717Z,4.40
2022-11-08T04:51:28.238Z,4.30
2022-11-08T04:53:57.597Z,4.20
2022-11-08T04:56:26.546Z,4.10
2022-11-08T04:58:57.071Z,4.00
2022-11-08T05:01:27.880Z,4.00
2022-11-08T05:03:55.395Z,4.00
2022-11-08T05:06:28.780Z,4.00
2022-11-08T05:08:57.619Z,3.90
2022-11-08T05:11:27.038Z,3.70
2022-11-08T05:24:15.951Z,3.50
2022-11-08T05:26:45.528Z,3.50
2022-11-08T05:29:15.010Z,3.30
2022-11-08T05:31:42.225Z,3.90
2022-11-08T05:34:09.259Z,3.90
2022-11-08T05:36:36.222Z,3.90
2022-11-08T05:39:03.276Z,3.50
2022-11-08T05:41:30.171Z,3.90
2022-11-08T06:31:05.703Z,4.00
2022-11-08T06:33:33.437Z,3.40
2022-11-08T06:36:00.858Z,3.50
2022-11-08T06:38:27.903Z,3.60
2022-11-08T06:40:54.836Z,3.70
2022-11-08T06:43:22.272Z,3.80
2022-11-08T06:45:49.721Z,3.80
2022-11-08T06:48:16.785Z,3.90
2022-11-08T06:50:44.160Z,4.00
2022-11-08T06:53:13.636Z,4.10
2022-11-08T06:55:41.055Z,4.10
2022-11-08T06:58:08.127Z,4.20
2022-11-08T07:00:35.336Z,4.20
2022-11-08T07:03:04.329Z,4.30
2022-11-08T07:05:34.199Z,4.40
2022-11-08T07:08:02.180Z,4.50
2022-11-08T07:10:32.196Z,4.60
2022-11-08T07:13:21.505Z,4.60
2022-11-08T07:15:48.981Z,4.60
2022-11-08T07:18:17.775Z,4.70
2022-11-08T07:20:45.048Z,4.70
2022-11-08T07:23:13.857Z,4.80
2022-11-08T07:25:41.240Z,4.80
2022-11-08T07:28:17.105Z,4.90
2022-11-08T07:30:46.286Z,5.00
2022-11-08T07:33:14.860Z,5.10
2022-11-08T07:35:44.370Z,5.10
2022-11-08T07:38:11.332Z,5.10
2022-11-08T07:40:38.271Z,5.30
2022-11-08T07:43:23.561Z,5.50
2022-11-08T07:45:58.996Z,5.90
2022-11-08T07:48:28.043Z,6.20
2022-11-08T07:50:55.303Z,6.50
2022-11-08T07:53:22.768Z,6.80
2022-11-08T07:55:49.775Z,7.10
2022-11-08T07:58:16.793Z,7.30
2022-11-08T08:00:45.353Z,7.70
2022-11-08T08:03:14.491Z,7.90
2022-11-08T08:05:44.648Z,8.20
2022-11-08T08:08:13.165Z,8.60
2022-11-08T08:10:41.166Z,8.60
2022-11-08T08:13:08.862Z,8.70
2022-11-08T08:15:35.842Z,8.80
2022-11-08T08:18:05.101Z,8.90
2022-11-08T08:20:33.118Z,8.90
2022-11-08T08:23:01.020Z,8.90
2022-11-08T08:25:30.981Z,9.20
2022-11-08T08:28:00.905Z,9.30
2022-11-08T08:30:30.294Z,9.30
2022-11-08T08:33:27.959Z,9.20
2022-11-08T08:35:56.366Z,9.30
2022-11-08T08:38:23.529Z,9.40
2022-11-08T08:48:14.370Z,13.10
2022-11-08T08:50:41.563Z,14.00
2022-11-08T08:53:08.614Z,14.80
2022-11-08T08:55:36.387Z,15.50
2022-11-08T08:58:03.713Z,16.10
2022-11-08T09:03:17.936Z,17.20
2022-11-08T09:05:46.623Z,17.70
2022-11-08T09:13:10.767Z,18.90
2022-11-08T09:15:39.239Z,19.00
2022-11-08T09:18:06.692Z,18.10
2022-11-08T09:20:33.653Z,17.20
2022-11-08T09:23:04.232Z,16.70
2022-11-08T09:25:31.715Z,16.70
2022-11-08T09:27:58.714Z,16.60
2022-11-08T09:30:26.614Z,16.30
2022-11-08T09:33:00.871Z,16.50
2022-11-08T09:35:29.599Z,16.70
2022-11-08T09:37:57.881Z,17.10
2022-11-08T09:40:50.821Z,17.60
2022-11-08T09:43:43.407Z,18.10
2022-11-08T09:46:41.453Z,18.60
2022-11-08T09:49:21.888Z,19.10
2022-11-08T09:51:49.933Z,19.20
2022-11-08T09:56:55.749Z,19.70
2022-11-08T09:59:39.882Z,20.10
2022-11-08T10:02:24.911Z,20.60
2022-11-08T10:05:03.053Z,20.90
2022-11-08T10:10:27.564Z,21.60
2022-11-08T10:15:37.873Z,21.50
2022-11-08T10:18:27.192Z,20.90
2022-11-08T10:21:21.103Z,20.70
2022-11-08T10:24:03.095Z,20.70
2022-11-08T10:26:37.085Z,20.00
2022-11-08T10:29:21.953Z,19.40
2022-11-08T10:31:58.380Z,18.90
2022-11-08T10:34:36.542Z,18.30
2022-11-08T10:37:06.482Z,17.70
2022-11-08T10:39:43.940Z,17.10
2022-11-08T10:42:19.141Z,17.00
2022-11-08T10:44:46.840Z,16.80
2022-11-08T10:47:27.060Z,16.70
2022-11-08T10:49:57.193Z,16.60
2022-11-08T10:52:41.068Z,16.90
2022-11-08T10:55:23.802Z,17.10
2022-11-08T10:57:50.764Z,17.00
2022-11-08T11:00:20.665Z,17.20
2022-11-08T11:02:56.673Z,17.10
2022-11-08T11:05:31.867Z,17.10
2022-11-08T11:08:02.984Z,17.20
2022-11-08T11:10:43.890Z,17.20
2022-11-08T11:13:25.148Z,17.50
2022-11-08T11:15:56.514Z,17.90
2022-11-08T11:18:46.462Z,18.30
2022-11-08T11:23:49.371Z,19.90
2022-11-08T11:26:39.068Z,20.60
2022-11-08T11:29:05.929Z,21.40
2022-11-08T11:31:45.622Z,22.10
2022-11-08T11:34:18.690Z,22.80
2022-11-08T11:37:10.933Z,23.30
2022-11-08T11:39:50.156Z,24.00
2022-11-08T11:42:59.280Z,24.00
2022-11-08T11:45:44.951Z,23.00
